sensor_id;sensor_type;location;lat;lon;timestamp;P1;durP1;ratioP1;P2;durP2;ratioP2
63902;SDS011;50072;50.678;13.938;2023-03-01T00:06:37;40.63;;;16.85;;
63902;SDS011;50072;50.678;13.938;2023-03-01T00:09:04;44.05;;;17.40;;
63902;SDS011;50072;50.678;13.938;2023-03-01T00:11:36;50.10;;;17.73;;
63902;SDS011;50072;50.678;13.938;2023-03-01T00:14:04;42.15;;;15.57;;
63902;SDS011;50072;50.678;13.938;2023-03-01T00:16:41;44.40;;;16.10;;
63902;SDS011;50072;50.678;13.938;2023-03-01T00:19:12;38.90;;;16.25;;
63902;SDS011;50072;50.678;13.938;2023-03-01T00:21:42;44.75;;;16.58;;
63902;SDS011;50072;50.678;13.938;2023-03-01T00:24:16;47.58;;;16.60;;
63902;SDS011;50072;50.678;13.938;2023-03-01T00:29:35;39.75;;;15.75;;
63902;SDS011;50072;50.678;13.938;2023-03-01T00:34:31;43.03;;;15.98;;
63902;SDS011;50072;50.678;13.938;2023-03-01T00:37:05;40.85;;;15.05;;
63902;SDS011;50072;50.678;13.938;2023-03-01T00:39:35;45.50;;;16.58;;
63902;SDS011;50072;50.678;13.938;2023-03-01T00:42:07;45.85;;;17.65;;
63902;SDS011;50072;50.678;13.938;2023-03-01T00:44:34;43.97;;;16.00;;
63902;SDS011;50072;50.678;13.938;2023-03-01T00:47:04;41.78;;;15.55;;
63902;SDS011;50072;50.678;13.938;2023-03-01T00:49:35;41.17;;;17.05;;
63902;SDS011;50072;50.678;13.938;2023-03-01T00:54:37;46.17;;;16.08;;
63902;SDS011;50072;50.678;13.938;2023-03-01T00:59:34;41.92;;;15.43;;
63902;SDS011;50072;50.678;13.938;2023-03-01T01:02:06;42.33;;;14.55;;
63902;SDS011;50072;50.678;13.938;2023-03-01T01:04:34;45.08;;;15.55;;
63902;SDS011;50072;50.678;13.938;2023-03-01T01:07:04;36.63;;;15.35;;
63902;SDS011;50072;50.678;13.938;2023-03-01T01:12:06;46.40;;;15.02;;
63902;SDS011;50072;50.678;13.938;2023-03-01T01:17:05;41.55;;;13.65;;
63902;SDS011;50072;50.678;13.938;2023-03-01T01:19:35;43.78;;;15.85;;
63902;SDS011;50072;50.678;13.938;2023-03-01T01:22:06;41.25;;;15.38;;
63902;SDS011;50072;50.678;13.938;2023-03-01T01:24:35;40.58;;;15.07;;
63902;SDS011;50072;50.678;13.938;2023-03-01T01:27:05;38.95;;;14.02;;
63902;SDS011;50072;50.678;13.938;2023-03-01T01:29:34;40.90;;;14.95;;
63902;SDS011;50072;50.678;13.938;2023-03-01T01:32:06;42.97;;;15.27;;
63902;SDS011;50072;50.678;13.938;2023-03-01T01:34:35;50.35;;;16.40;;
63902;SDS011;50072;50.678;13.938;2023-03-01T01:37:07;47.47;;;15.75;;
63902;SDS011;50072;50.678;13.938;2023-03-01T01:39:34;44.00;;;14.45;;
63902;SDS011;50072;50.678;13.938;2023-03-01T01:44:36;51.47;;;17.58;;
63902;SDS011;50072;50.678;13.938;2023-03-01T01:47:06;46.20;;;16.40;;
63902;SDS011;50072;50.678;13.938;2023-03-01T01:58:05;36.80;;;13.82;;
63902;SDS011;50072;50.678;13.938;2023-03-01T02:00:35;44.60;;;14.40;;
63902;SDS011;50072;50.678;13.938;2023-03-01T02:03:07;40.90;;;14.40;;
63902;SDS011;50072;50.678;13.938;2023-03-01T02:14:36;39.22;;;13.50;;
63902;SDS011;50072;50.678;13.938;2023-03-01T02:17:04;34.03;;;12.38;;
63902;SDS011;50072;50.678;13.938;2023-03-01T02:30:49;38.97;;;11.98;;
63902;SDS011;50072;50.678;13.938;2023-03-01T02:33:36;35.20;;;12.00;;
63902;SDS011;50072;50.678;13.938;2023-03-01T02:36:06;34.97;;;13.10;;
63902;SDS011;50072;50.678;13.938;2023-03-01T02:38:42;35.20;;;12.45;;
63902;SDS011;50072;50.678;13.938;2023-03-01T02:44:05;37.35;;;12.20;;
63902;SDS011;50072;50.678;13.938;2023-03-01T02:46:41;37.08;;;13.95;;
63902;SDS011;50072;50.678;13.938;2023-03-01T02:55:03;43.17;;;14.40;;
63902;SDS011;50072;50.678;13.938;2023-03-01T02:57:35;53.88;;;15.38;;
63902;SDS011;50072;50.678;13.938;2023-03-01T03:00:08;91.32;;;25.33;;
63902;SDS011;50072;50.678;13.938;2023-03-01T03:05:37;49.60;;;16.52;;
63902;SDS011;50072;50.678;13.938;2023-03-01T03:08:04;47.42;;;13.77;;
63902;SDS011;50072;50.678;13.938;2023-03-01T03:10:37;36.75;;;14.35;;
63902;SDS011;50072;50.678;13.938;2023-03-01T03:13:08;43.00;;;13.75;;
63902;SDS011;50072;50.678;13.938;2023-03-01T03:15:41;35.05;;;9.43;;
63902;SDS011;50072;50.678;13.938;2023-03-01T03:18:23;38.08;;;13.73;;
63902;SDS011;50072;50.678;13.938;2023-03-01T03:23:41;36.00;;;13.93;;
63902;SDS011;50072;50.678;13.938;2023-03-01T03:29:06;31.27;;;12.10;;
63902;SDS011;50072;50.678;13.938;2023-03-01T03:31:37;28.02;;;10.07;;
63902;SDS011;50072;50.678;13.938;2023-03-01T03:34:04;37.72;;;13.43;;
63902;SDS011;50072;50.678;13.938;2023-03-01T03:36:35;30.73;;;12.95;;
63902;SDS011;50072;50.678;13.938;2023-03-01T03:39:06;37.90;;;13.63;;
63902;SDS011;50072;50.678;13.938;2023-03-01T03:41:35;34.88;;;13.02;;
63902;SDS011;50072;50.678;13.938;2023-03-01T03:44:02;35.17;;;12.38;;
63902;SDS011;50072;50.678;13.938;2023-03-01T03:46:35;34.92;;;12.63;;
63902;SDS011;50072;50.678;13.938;2023-03-01T03:49:05;32.10;;;11.98;;
63902;SDS011;50072;50.678;13.938;2023-03-01T03:51:36;33.65;;;12.30;;
63902;SDS011;50072;50.678;13.938;2023-03-01T03:54:05;35.50;;;12.47;;
63902;SDS011;50072;50.678;13.938;2023-03-01T03:56:30;36.90;;;13.85;;
63902;SDS011;50072;50.678;13.938;2023-03-01T03:59:04;39.30;;;14.20;;
63902;SDS011;50072;50.678;13.938;2023-03-01T04:01:34;40.65;;;15.13;;
63902;SDS011;50072;50.678;13.938;2023-03-01T04:04:00;40.65;;;14.98;;
63902;SDS011;50072;50.678;13.938;2023-03-01T04:06:31;45.88;;;14.52;;
63902;SDS011;50072;50.678;13.938;2023-03-01T04:09:05;46.40;;;17.15;;
63902;SDS011;50072;50.678;13.938;2023-03-01T04:11:37;47.03;;;15.82;;
63902;SDS011;50072;50.678;13.938;2023-03-01T04:14:05;54.50;;;16.55;;
63902;SDS011;50072;50.678;13.938;2023-03-01T04:19:07;36.67;;;14.35;;
63902;SDS011;50072;50.678;13.938;2023-03-01T04:21:35;38.45;;;15.18;;
63902;SDS011;50072;50.678;13.938;2023-03-01T04:24:07;49.65;;;16.85;;
63902;SDS011;50072;50.678;13.938;2023-03-01T04:26:35;46.30;;;15.80;;
63902;SDS011;50072;50.678;13.938;2023-03-01T04:31:36;47.97;;;16.83;;
63902;SDS011;50072;50.678;13.938;2023-03-01T04:34:05;47.43;;;16.10;;
63902;SDS011;50072;50.678;13.938;2023-03-01T04:36:36;43.92;;;15.73;;
63902;SDS011;50072;50.678;13.938;2023-03-01T04:39:05;42.73;;;14.80;;
63902;SDS011;50072;50.678;13.938;2023-03-01T04:47:04;33.53;;;13.35;;
63902;SDS011;50072;50.678;13.938;2023-03-01T04:49:30;34.35;;;12.10;;
63902;SDS011;50072;50.678;13.938;2023-03-01T04:52:05;41.20;;;14.55;;
63902;SDS011;50072;50.678;13.938;2023-03-01T04:54:37;39.83;;;14.23;;
63902;SDS011;50072;50.678;13.938;2023-03-01T04:57:05;35.83;;;12.98;;
63902;SDS011;50072;50.678;13.938;2023-03-01T04:59:34;36.30;;;12.75;;
63902;SDS011;50072;50.678;13.938;2023-03-01T05:02:01;40.25;;;12.32;;
63902;SDS011;50072;50.678;13.938;2023-03-01T05:04:28;36.95;;;13.38;;
63902;SDS011;50072;50.678;13.938;2023-03-01T05:06:58;39.83;;;15.32;;
63902;SDS011;50072;50.678;13.938;2023-03-01T05:09:24;47.25;;;16.38;;
63902;SDS011;50072;50.678;13.938;2023-03-01T05:11:50;44.20;;;15.68;;
63902;SDS011;50072;50.678;13.938;2023-03-01T05:14:16;47.72;;;16.73;;
63902;SDS011;50072;50.678;13.938;2023-03-01T05:19:35;50.10;;;17.23;;
63902;SDS011;50072;50.678;13.938;2023-03-01T05:22:02;54.75;;;18.27;;
63902;SDS011;50072;50.678;13.938;2023-03-01T05:24:32;47.80;;;15.68;;
63902;SDS011;50072;50.678;13.938;2023-03-01T05:27:01;40.72;;;15.55;;
63902;SDS011;50072;50.678;13.938;2023-03-01T05:29:27;41.13;;;14.73;;
63902;SDS011;50072;50.678;13.938;2023-03-01T05:31:57;43.05;;;14.75;;
63902;SDS011;50072;50.678;13.938;2023-03-01T05:34:27;39.30;;;13.75;;
63902;SDS011;50072;50.678;13.938;2023-03-01T05:36:55;45.40;;;13.27;;
63902;SDS011;50072;50.678;13.938;2023-03-01T05:39:23;37.88;;;14.38;;
63902;SDS011;50072;50.678;13.938;2023-03-01T05:41:53;42.35;;;15.57;;
63902;SDS011;50072;50.678;13.938;2023-03-01T05:44:21;42.20;;;14.23;;
63902;SDS011;50072;50.678;13.938;2023-03-01T05:46:48;38.88;;;14.90;;
63902;SDS011;50072;50.678;13.938;2023-03-01T05:49:17;40.30;;;15.38;;
63902;SDS011;50072;50.678;13.938;2023-03-01T05:51:47;37.63;;;13.88;;
63902;SDS011;50072;50.678;13.938;2023-03-01T05:54:15;44.42;;;14.52;;
63902;SDS011;50072;50.678;13.938;2023-03-01T05:56:43;34.80;;;13.90;;
63902;SDS011;50072;50.678;13.938;2023-03-01T05:59:12;38.80;;;14.45;;
63902;SDS011;50072;50.678;13.938;2023-03-01T06:01:39;38.58;;;14.25;;
63902;SDS011;50072;50.678;13.938;2023-03-01T06:04:06;37.85;;;14.80;;
63902;SDS011;50072;50.678;13.938;2023-03-01T06:06:33;37.53;;;14.35;;
63902;SDS011;50072;50.678;13.938;2023-03-01T06:09:05;42.17;;;13.95;;
63902;SDS011;50072;50.678;13.938;2023-03-01T06:11:36;34.28;;;13.98;;
63902;SDS011;50072;50.678;13.938;2023-03-01T06:14:05;44.67;;;14.45;;
63902;SDS011;50072;50.678;13.938;2023-03-01T06:16:33;36.42;;;14.13;;
63902;SDS011;50072;50.678;13.938;2023-03-01T06:19:01;38.42;;;15.15;;
63902;SDS011;50072;50.678;13.938;2023-03-01T06:21:27;40.88;;;14.73;;
63902;SDS011;50072;50.678;13.938;2023-03-01T06:23:53;41.53;;;16.20;;
63902;SDS011;50072;50.678;13.938;2023-03-01T06:26:20;39.67;;;14.70;;
63902;SDS011;50072;50.678;13.938;2023-03-01T06:28:46;43.97;;;15.98;;
63902;SDS011;50072;50.678;13.938;2023-03-01T06:31:13;39.22;;;15.48;;
63902;SDS011;50072;50.678;13.938;2023-03-01T06:33:40;42.67;;;15.73;;
63902;SDS011;50072;50.678;13.938;2023-03-01T06:36:08;46.92;;;15.98;;
63902;SDS011;50072;50.678;13.938;2023-03-01T06:38:38;41.90;;;17.05;;
63902;SDS011;50072;50.678;13.938;2023-03-01T06:41:06;50.00;;;17.08;;
63902;SDS011;50072;50.678;13.938;2023-03-01T06:43:32;44.53;;;16.65;;
63902;SDS011;50072;50.678;13.938;2023-03-01T06:45:59;46.03;;;17.67;;
63902;SDS011;50072;50.678;13.938;2023-03-01T06:48:25;47.90;;;17.88;;
63902;SDS011;50072;50.678;13.938;2023-03-01T06:50:51;52.80;;;16.75;;
63902;SDS011;50072;50.678;13.938;2023-03-01T06:53:18;50.53;;;17.67;;
63902;SDS011;50072;50.678;13.938;2023-03-01T06:55:47;47.42;;;16.75;;
63902;SDS011;50072;50.678;13.938;2023-03-01T06:58:13;51.53;;;18.00;;
63902;SDS011;50072;50.678;13.938;2023-03-01T07:00:40;43.10;;;16.00;;
63902;SDS011;50072;50.678;13.938;2023-03-01T07:03:06;54.92;;;17.75;;
63902;SDS011;50072;50.678;13.938;2023-03-01T07:05:35;43.92;;;17.77;;
63902;SDS011;50072;50.678;13.938;2023-03-01T07:08:02;46.20;;;17.42;;
63902;SDS011;50072;50.678;13.938;2023-03-01T07:10:35;48.53;;;17.63;;
63902;SDS011;50072;50.678;13.938;2023-03-01T07:13:06;60.38;;;20.95;;
63902;SDS011;50072;50.678;13.938;2023-03-01T07:15:33;62.08;;;22.60;;
63902;SDS011;50072;50.678;13.938;2023-03-01T07:20:34;80.70;;;30.42;;
63902;SDS011;50072;50.678;13.938;2023-03-01T07:23:02;81.45;;;35.17;;
63902;SDS011;50072;50.678;13.938;2023-03-01T07:25:35;80.55;;;35.45;;
63902;SDS011;50072;50.678;13.938;2023-03-01T07:28:07;79.82;;;33.30;;
63902;SDS011;50072;50.678;13.938;2023-03-01T07:30:33;88.47;;;35.47;;
63902;SDS011;50072;50.678;13.938;2023-03-01T07:32:58;75.47;;;30.13;;
63902;SDS011;50072;50.678;13.938;2023-03-01T07:35:34;74.70;;;32.03;;
63902;SDS011;50072;50.678;13.938;2023-03-01T07:38:06;76.65;;;30.60;;
63902;SDS011;50072;50.678;13.938;2023-03-01T07:40:37;67.50;;;28.60;;
63902;SDS011;50072;50.678;13.938;2023-03-01T07:43:05;69.32;;;28.63;;
63902;SDS011;50072;50.678;13.938;2023-03-01T07:45:31;73.75;;;29.58;;
63902;SDS011;50072;50.678;13.938;2023-03-01T07:48:05;70.88;;;30.38;;
63902;SDS011;50072;50.678;13.938;2023-03-01T07:50:36;63.67;;;26.75;;
63902;SDS011;50072;50.678;13.938;2023-03-01T07:53:03;65.85;;;25.02;;
63902;SDS011;50072;50.678;13.938;2023-03-01T07:58:01;58.90;;;23.75;;
63902;SDS011;50072;50.678;13.938;2023-03-01T08:00:34;57.08;;;23.55;;
63902;SDS011;50072;50.678;13.938;2023-03-01T08:03:05;58.47;;;23.98;;
63902;SDS011;50072;50.678;13.938;2023-03-01T08:10:36;55.63;;;23.00;;
63902;SDS011;50072;50.678;13.938;2023-03-01T08:13:05;54.33;;;21.63;;
63902;SDS011;50072;50.678;13.938;2023-03-01T08:15:36;57.10;;;22.50;;
63902;SDS011;50072;50.678;13.938;2023-03-01T08:18:05;46.53;;;20.63;;
63902;SDS011;50072;50.678;13.938;2023-03-01T08:20:34;52.80;;;20.17;;
63902;SDS011;50072;50.678;13.938;2023-03-01T08:23:05;49.38;;;20.73;;
63902;SDS011;50072;50.678;13.938;2023-03-01T08:25:34;47.75;;;19.85;;
63902;SDS011;50072;50.678;13.938;2023-03-01T08:30:35;52.10;;;22.38;;
63902;SDS011;50072;50.678;13.938;2023-03-01T08:35:35;53.08;;;22.90;;
63902;SDS011;50072;50.678;13.938;2023-03-01T08:38:06;47.72;;;21.27;;
63902;SDS011;50072;50.678;13.938;2023-03-01T08:40:34;47.35;;;21.00;;
63902;SDS011;50072;50.678;13.938;2023-03-01T08:43:06;48.17;;;21.50;;
63902;SDS011;50072;50.678;13.938;2023-03-01T08:45:35;45.58;;;21.25;;
63902;SDS011;50072;50.678;13.938;2023-03-01T08:48:05;52.13;;;21.17;;
63902;SDS011;50072;50.678;13.938;2023-03-01T08:50:35;48.58;;;20.88;;
63902;SDS011;50072;50.678;13.938;2023-03-01T08:53:06;49.67;;;21.98;;
63902;SDS011;50072;50.678;13.938;2023-03-01T08:55:35;47.42;;;21.52;;
63902;SDS011;50072;50.678;13.938;2023-03-01T08:58:00;42.25;;;19.50;;
63902;SDS011;50072;50.678;13.938;2023-03-01T09:00:26;42.25;;;18.27;;
63902;SDS011;50072;50.678;13.938;2023-03-01T09:02:52;37.88;;;18.38;;
63902;SDS011;50072;50.678;13.938;2023-03-01T09:05:20;42.70;;;17.85;;
63902;SDS011;50072;50.678;13.938;2023-03-01T09:07:45;36.20;;;17.48;;
63902;SDS011;50072;50.678;13.938;2023-03-01T09:10:12;41.72;;;18.02;;
63902;SDS011;50072;50.678;13.938;2023-03-01T09:12:39;41.67;;;18.25;;
63902;SDS011;50072;50.678;13.938;2023-03-01T09:15:06;39.38;;;17.40;;
63902;SDS011;50072;50.678;13.938;2023-03-01T09:17:33;35.38;;;15.80;;
63902;SDS011;50072;50.678;13.938;2023-03-01T09:19:59;37.35;;;17.35;;
63902;SDS011;50072;50.678;13.938;2023-03-01T09:22:25;33.50;;;16.88;;
63902;SDS011;50072;50.678;13.938;2023-03-01T09:24:51;37.70;;;16.17;;
63902;SDS011;50072;50.678;13.938;2023-03-01T09:27:17;35.67;;;16.52;;
63902;SDS011;50072;50.678;13.938;2023-03-01T09:29:45;32.35;;;15.50;;
63902;SDS011;50072;50.678;13.938;2023-03-01T09:32:12;35.58;;;15.68;;
63902;SDS011;50072;50.678;13.938;2023-03-01T09:34:39;32.05;;;14.60;;
63902;SDS011;50072;50.678;13.938;2023-03-01T09:37:24;35.78;;;14.70;;
63902;SDS011;50072;50.678;13.938;2023-03-01T09:39:51;31.40;;;15.52;;
63902;SDS011;50072;50.678;13.938;2023-03-01T09:42:17;32.17;;;14.80;;
63902;SDS011;50072;50.678;13.938;2023-03-01T09:44:54;32.92;;;14.73;;
63902;SDS011;50072;50.678;13.938;2023-03-01T09:47:32;30.75;;;13.80;;
63902;SDS011;50072;50.678;13.938;2023-03-01T09:55:04;28.27;;;12.80;;
63902;SDS011;50072;50.678;13.938;2023-03-01T09:57:41;28.85;;;13.18;;
63902;SDS011;50072;50.678;13.938;2023-03-01T10:03:00;28.48;;;12.15;;
63902;SDS011;50072;50.678;13.938;2023-03-01T10:08:31;28.23;;;12.57;;
63902;SDS011;50072;50.678;13.938;2023-03-01T10:11:30;25.80;;;13.07;;
63902;SDS011;50072;50.678;13.938;2023-03-01T10:17:44;22.05;;;12.50;;
63902;SDS011;50072;50.678;13.938;2023-03-01T10:19:51;23.67;;;12.88;;
63902;SDS011;50072;50.678;13.938;2023-03-01T10:22:27;24.08;;;12.93;;
63902;SDS011;50072;50.678;13.938;2023-03-01T10:24:57;28.88;;;13.32;;
63902;SDS011;50072;50.678;13.938;2023-03-01T10:27:29;24.15;;;12.68;;
63902;SDS011;50072;50.678;13.938;2023-03-01T10:33:26;24.33;;;12.90;;
63902;SDS011;50072;50.678;13.938;2023-03-01T10:35:55;25.85;;;12.77;;
63902;SDS011;50072;50.678;13.938;2023-03-01T10:38:22;22.90;;;13.30;;
63902;SDS011;50072;50.678;13.938;2023-03-01T10:40:53;22.65;;;12.50;;
63902;SDS011;50072;50.678;13.938;2023-03-01T10:43:23;28.25;;;12.52;;
63902;SDS011;50072;50.678;13.938;2023-03-01T10:45:56;26.27;;;13.45;;
63902;SDS011;50072;50.678;13.938;2023-03-01T10:48:25;28.00;;;12.38;;
63902;SDS011;50072;50.678;13.938;2023-03-01T10:53:32;24.58;;;12.90;;
63902;SDS011;50072;50.678;13.938;2023-03-01T10:56:05;23.42;;;12.75;;
63902;SDS011;50072;50.678;13.938;2023-03-01T10:58:35;24.15;;;13.20;;
63902;SDS011;50072;50.678;13.938;2023-03-01T11:01:04;44.03;;;24.77;;
63902;SDS011;50072;50.678;13.938;2023-03-01T11:03:36;26.55;;;15.10;;
63902;SDS011;50072;50.678;13.938;2023-03-01T11:13:58;23.10;;;12.60;;
63902;SDS011;50072;50.678;13.938;2023-03-01T11:16:35;20.88;;;12.35;;
63902;SDS011;50072;50.678;13.938;2023-03-01T11:24:03;19.02;;;11.80;;
63902;SDS011;50072;50.678;13.938;2023-03-01T11:26:34;19.85;;;11.98;;
63902;SDS011;50072;50.678;13.938;2023-03-01T11:29:06;20.98;;;12.13;;
63902;SDS011;50072;50.678;13.938;2023-03-01T11:31:43;21.02;;;12.13;;
63902;SDS011;50072;50.678;13.938;2023-03-01T11:34:18;23.05;;;12.80;;
63902;SDS011;50072;50.678;13.938;2023-03-01T11:36:56;20.65;;;12.57;;
63902;SDS011;50072;50.678;13.938;2023-03-01T11:39:34;20.52;;;11.93;;
63902;SDS011;50072;50.678;13.938;2023-03-01T11:42:18;21.17;;;12.80;;
63902;SDS011;50072;50.678;13.938;2023-03-01T11:44:52;19.80;;;11.82;;
63902;SDS011;50072;50.678;13.938;2023-03-01T12:07:45;24.30;;;13.38;;
63902;SDS011;50072;50.678;13.938;2023-03-01T12:10:37;21.02;;;13.65;;
63902;SDS011;50072;50.678;13.938;2023-03-01T12:19:15;20.55;;;12.77;;
63902;SDS011;50072;50.678;13.938;2023-03-01T12:44:50;19.10;;;11.07;;
63902;SDS011;50072;50.678;13.938;2023-03-01T12:51:02;15.10;;;9.13;;
63902;SDS011;50072;50.678;13.938;2023-03-01T12:53:46;16.88;;;9.18;;
63902;SDS011;50072;50.678;13.938;2023-03-01T12:56:13;15.48;;;9.27;;
63902;SDS011;50072;50.678;13.938;2023-03-01T13:20:53;15.48;;;8.32;;
63902;SDS011;50072;50.678;13.938;2023-03-01T13:31:00;12.30;;;8.60;;
63902;SDS011;50072;50.678;13.938;2023-03-01T13:35:55;15.27;;;9.35;;
63902;SDS011;50072;50.678;13.938;2023-03-01T13:41:15;17.17;;;9.77;;
63902;SDS011;50072;50.678;13.938;2023-03-01T13:44:02;13.88;;;8.07;;
63902;SDS011;50072;50.678;13.938;2023-03-01T13:46:43;15.10;;;8.25;;
63902;SDS011;50072;50.678;13.938;2023-03-01T13:49:11;15.80;;;8.90;;
63902;SDS011;50072;50.678;13.938;2023-03-01T13:54:11;13.50;;;8.23;;
63902;SDS011;50072;50.678;13.938;2023-03-01T13:56:40;12.63;;;8.27;;
63902;SDS011;50072;50.678;13.938;2023-03-01T13:59:12;13.68;;;8.02;;
63902;SDS011;50072;50.678;13.938;2023-03-01T14:01:41;23.17;;;10.55;;
63902;SDS011;50072;50.678;13.938;2023-03-01T14:04:22;15.40;;;8.93;;
63902;SDS011;50072;50.678;13.938;2023-03-01T14:09:46;14.88;;;9.48;;
63902;SDS011;50072;50.678;13.938;2023-03-01T14:12:22;17.08;;;9.65;;
63902;SDS011;50072;50.678;13.938;2023-03-01T14:15:14;17.08;;;10.10;;
63902;SDS011;50072;50.678;13.938;2023-03-01T14:17:50;16.33;;;9.75;;
63902;SDS011;50072;50.678;13.938;2023-03-01T14:20:22;17.13;;;9.77;;
63902;SDS011;50072;50.678;13.938;2023-03-01T14:22:52;17.05;;;10.38;;
63902;SDS011;50072;50.678;13.938;2023-03-01T14:25:36;16.02;;;9.65;;
63902;SDS011;50072;50.678;13.938;2023-03-01T14:28:13;16.38;;;10.30;;
63902;SDS011;50072;50.678;13.938;2023-03-01T14:30:44;16.40;;;10.30;;
63902;SDS011;50072;50.678;13.938;2023-03-01T14:33:20;17.35;;;9.98;;
63902;SDS011;50072;50.678;13.938;2023-03-01T14:36:10;15.63;;;9.82;;
63902;SDS011;50072;50.678;13.938;2023-03-01T14:38:41;18.35;;;10.35;;
63902;SDS011;50072;50.678;13.938;2023-03-01T14:41:31;17.85;;;10.82;;
63902;SDS011;50072;50.678;13.938;2023-03-01T14:44:03;17.20;;;10.23;;
63902;SDS011;50072;50.678;13.938;2023-03-01T14:46:39;17.20;;;9.75;;
63902;SDS011;50072;50.678;13.938;2023-03-01T14:52:00;16.23;;;10.52;;
63902;SDS011;50072;50.678;13.938;2023-03-01T14:54:37;18.80;;;10.27;;
63902;SDS011;50072;50.678;13.938;2023-03-01T14:57:17;16.00;;;9.38;;
63902;SDS011;50072;50.678;13.938;2023-03-01T14:59:47;19.65;;;10.05;;
63902;SDS011;50072;50.678;13.938;2023-03-01T15:02:17;19.73;;;10.88;;
63902;SDS011;50072;50.678;13.938;2023-03-01T15:04:47;40.85;;;24.38;;
63902;SDS011;50072;50.678;13.938;2023-03-01T15:07:16;67.65;;;36.10;;
63902;SDS011;50072;50.678;13.938;2023-03-01T15:09:44;24.77;;;12.45;;
63902;SDS011;50072;50.678;13.938;2023-03-01T15:17:53;18.05;;;9.57;;
63902;SDS011;50072;50.678;13.938;2023-03-01T15:20:23;24.60;;;12.80;;
63902;SDS011;50072;50.678;13.938;2023-03-01T15:22:51;17.80;;;9.43;;
63902;SDS011;50072;50.678;13.938;2023-03-01T15:25:22;30.08;;;15.52;;
63902;SDS011;50072;50.678;13.938;2023-03-01T15:27:51;20.65;;;9.98;;
63902;SDS011;50072;50.678;13.938;2023-03-01T15:30:20;22.20;;;9.52;;
63902;SDS011;50072;50.678;13.938;2023-03-01T15:36:01;19.58;;;9.30;;
63902;SDS011;50072;50.678;13.938;2023-03-01T15:38:32;21.20;;;10.07;;
63902;SDS011;50072;50.678;13.938;2023-03-01T15:41:05;20.70;;;9.80;;
63902;SDS011;50072;50.678;13.938;2023-03-01T15:52:06;23.02;;;10.48;;
63902;SDS011;50072;50.678;13.938;2023-03-01T15:54:50;18.52;;;9.02;;
63902;SDS011;50072;50.678;13.938;2023-03-01T16:00:15;21.13;;;10.27;;
63902;SDS011;50072;50.678;13.938;2023-03-01T16:05:15;21.48;;;9.52;;
63902;SDS011;50072;50.678;13.938;2023-03-01T16:07:45;25.83;;;10.60;;
63902;SDS011;50072;50.678;13.938;2023-03-01T16:10:12;22.52;;;9.32;;
63902;SDS011;50072;50.678;13.938;2023-03-01T16:12:38;18.60;;;9.50;;
63902;SDS011;50072;50.678;13.938;2023-03-01T16:15:07;21.73;;;9.60;;
63902;SDS011;50072;50.678;13.938;2023-03-01T16:20:35;23.17;;;9.43;;
63902;SDS011;50072;50.678;13.938;2023-03-01T16:23:07;22.77;;;10.73;;
63902;SDS011;50072;50.678;13.938;2023-03-01T16:25:35;21.27;;;9.48;;
63902;SDS011;50072;50.678;13.938;2023-03-01T16:30:35;24.13;;;10.65;;
63902;SDS011;50072;50.678;13.938;2023-03-01T16:33:07;21.48;;;10.23;;
63902;SDS011;50072;50.678;13.938;2023-03-01T16:35:38;23.58;;;10.75;;
63902;SDS011;50072;50.678;13.938;2023-03-01T16:38:11;23.98;;;10.05;;
63902;SDS011;50072;50.678;13.938;2023-03-01T16:40:43;21.92;;;9.93;;
63902;SDS011;50072;50.678;13.938;2023-03-01T16:45:55;22.98;;;9.52;;
63902;SDS011;50072;50.678;13.938;2023-03-01T16:48:27;25.00;;;10.27;;
63902;SDS011;50072;50.678;13.938;2023-03-01T16:53:37;19.35;;;9.27;;
63902;SDS011;50072;50.678;13.938;2023-03-01T16:56:05;22.30;;;10.05;;
63902;SDS011;50072;50.678;13.938;2023-03-01T16:58:35;25.45;;;11.07;;
63902;SDS011;50072;50.678;13.938;2023-03-01T17:01:20;26.10;;;10.93;;
63902;SDS011;50072;50.678;13.938;2023-03-01T17:06:36;25.35;;;10.23;;
63902;SDS011;50072;50.678;13.938;2023-03-01T17:09:05;22.13;;;9.48;;
63902;SDS011;50072;50.678;13.938;2023-03-01T17:11:36;25.52;;;10.10;;
63902;SDS011;50072;50.678;13.938;2023-03-01T17:14:03;20.73;;;9.85;;
63902;SDS011;50072;50.678;13.938;2023-03-01T17:16:35;26.15;;;11.25;;
63902;SDS011;50072;50.678;13.938;2023-03-01T17:21:35;25.25;;;10.25;;
63902;SDS011;50072;50.678;13.938;2023-03-01T17:24:04;23.25;;;10.05;;
63902;SDS011;50072;50.678;13.938;2023-03-01T17:26:36;26.90;;;10.43;;
63902;SDS011;50072;50.678;13.938;2023-03-01T17:29:03;21.10;;;9.20;;
63902;SDS011;50072;50.678;13.938;2023-03-01T17:34:07;23.45;;;9.65;;
63902;SDS011;50072;50.678;13.938;2023-03-01T17:36:35;18.65;;;8.88;;
63902;SDS011;50072;50.678;13.938;2023-03-01T17:39:15;22.25;;;9.18;;
63902;SDS011;50072;50.678;13.938;2023-03-01T17:41:42;23.15;;;9.48;;
63902;SDS011;50072;50.678;13.938;2023-03-01T17:44:13;42.13;;;15.10;;
63902;SDS011;50072;50.678;13.938;2023-03-01T17:46:39;47.33;;;17.02;;
63902;SDS011;50072;50.678;13.938;2023-03-01T17:49:05;30.10;;;12.00;;
63902;SDS011;50072;50.678;13.938;2023-03-01T17:51:33;23.35;;;10.80;;
63902;SDS011;50072;50.678;13.938;2023-03-01T17:54:03;27.83;;;10.77;;
63902;SDS011;50072;50.678;13.938;2023-03-01T17:56:28;28.33;;;10.82;;
63902;SDS011;50072;50.678;13.938;2023-03-01T17:58:57;26.52;;;10.88;;
63902;SDS011;50072;50.678;13.938;2023-03-01T18:01:34;26.35;;;10.65;;
63902;SDS011;50072;50.678;13.938;2023-03-01T18:04:07;25.00;;;9.95;;
63902;SDS011;50072;50.678;13.938;2023-03-01T18:06:35;24.52;;;10.95;;
63902;SDS011;50072;50.678;13.938;2023-03-01T18:09:02;20.90;;;9.57;;
63902;SDS011;50072;50.678;13.938;2023-03-01T18:11:29;23.95;;;10.90;;
63902;SDS011;50072;50.678;13.938;2023-03-01T18:14:05;29.98;;;11.25;;
63902;SDS011;50072;50.678;13.938;2023-03-01T18:16:35;26.40;;;10.80;;
63902;SDS011;50072;50.678;13.938;2023-03-01T18:19:04;29.13;;;11.60;;
63902;SDS011;50072;50.678;13.938;2023-03-01T18:24:03;29.13;;;12.20;;
63902;SDS011;50072;50.678;13.938;2023-03-01T18:26:29;29.48;;;13.35;;
63902;SDS011;50072;50.678;13.938;2023-03-01T18:29:01;31.45;;;13.35;;
63902;SDS011;50072;50.678;13.938;2023-03-01T18:31:35;35.45;;;13.30;;
63902;SDS011;50072;50.678;13.938;2023-03-01T18:36:34;31.80;;;12.27;;
63902;SDS011;50072;50.678;13.938;2023-03-01T18:39:05;29.63;;;11.95;;
63902;SDS011;50072;50.678;13.938;2023-03-01T18:44:05;33.30;;;14.07;;
63902;SDS011;50072;50.678;13.938;2023-03-01T18:46:34;58.35;;;25.23;;
63902;SDS011;50072;50.678;13.938;2023-03-01T18:49:05;40.60;;;18.48;;
63902;SDS011;50072;50.678;13.938;2023-03-01T18:51:35;36.03;;;14.68;;
63902;SDS011;50072;50.678;13.938;2023-03-01T18:56:31;61.40;;;24.60;;
63902;SDS011;50072;50.678;13.938;2023-03-01T18:59:05;68.07;;;23.17;;
63902;SDS011;50072;50.678;13.938;2023-03-01T19:01:35;76.57;;;28.15;;
63902;SDS011;50072;50.678;13.938;2023-03-01T19:04:04;62.08;;;24.20;;
63902;SDS011;50072;50.678;13.938;2023-03-01T19:06:34;86.82;;;28.90;;
63902;SDS011;50072;50.678;13.938;2023-03-01T19:09:07;89.25;;;33.00;;